createdAt,value
2022-08-22T00:02:58.278Z,84.34
2022-08-22T00:03:07.476Z,82.14
2022-08-22T00:04:00.766Z,87.46
2022-08-22T00:09:26.798Z,87.38
2022-08-22T00:14:40.582Z,87.43
2022-08-22T00:20:00.510Z,87.62
2022-08-22T00:25:40.675Z,87.59
2022-08-22T00:30:56.029Z,87.40
2022-08-22T00:36:21.888Z,87.29
2022-08-22T00:42:07.054Z,87.61
2022-08-22T00:47:51.262Z,87.70
2022-08-22T00:53:11.175Z,87.83
2022-08-22T00:58:53.217Z,88.11
2022-08-22T01:04:29.452Z,88.62
2022-08-22T01:09:48.011Z,88.06
2022-08-22T01:15:00.468Z,88.22
2022-08-22T01:20:37.949Z,88.21
2022-08-22T01:26:32.261Z,88.47
2022-08-22T01:32:05.998Z,88.85
2022-08-22T01:37:33.881Z,89.28
2022-08-22T01:43:12.090Z,89.04
2022-08-22T01:48:23.310Z,89.10
2022-08-22T01:53:41.898Z,89.24
2022-08-22T01:59:02.256Z,89.39
2022-08-22T02:04:12.087Z,89.40
2022-08-22T02:09:41.695Z,88.95
2022-08-22T02:14:53.834Z,88.90
2022-08-22T02:20:17.531Z,88.56
2022-08-22T02:25:33.536Z,88.98
2022-08-22T02:30:52.002Z,88.77
2022-08-22T02:36:03.697Z,88.74
2022-08-22T02:41:18.698Z,89.06
2022-08-22T02:46:41.354Z,89.08
2022-08-22T02:51:59.909Z,89.09
2022-08-22T02:57:14.690Z,89.05
2022-08-22T03:02:35.223Z,88.98
2022-08-22T03:08:03.898Z,89.53
2022-08-22T03:13:22.298Z,89.72
2022-08-22T03:18:47.383Z,89.62
2022-08-22T03:23:58.199Z,89.52
2022-08-22T03:29:11.859Z,88.94
2022-08-22T03:34:22.132Z,88.95
2022-08-22T03:40:09.617Z,89.62
2022-08-22T03:45:50.663Z,89.29
2022-08-22T03:51:32.783Z,90.00
2022-08-22T03:57:26.253Z,89.31
2022-08-22T04:03:08.988Z,89.88
2022-08-22T04:09:05.043Z,90.45
2022-08-22T04:14:53.958Z,89.80
2022-08-22T04:20:30.949Z,90.26
2022-08-22T04:25:39.122Z,90.25
2022-08-22T04:30:46.270Z,89.93
2022-08-22T04:35:59.650Z,89.90
2022-08-22T04:41:08.713Z,89.55
2022-08-22T04:46:18.823Z,89.43
2022-08-22T04:51:27.780Z,87.80
2022-08-22T04:56:39.190Z,87.32
2022-08-22T05:01:44.823Z,86.72
2022-08-22T05:06:52.711Z,86.33
2022-08-22T05:12:11.427Z,86.20
2022-08-22T05:17:20.230Z,85.76
2022-08-22T05:22:27.558Z,85.05
2022-08-22T05:27:36.688Z,84.62
2022-08-22T05:32:49.411Z,84.75
2022-08-22T05:37:56.981Z,84.46
2022-08-22T05:43:01.691Z,84.54
2022-08-22T05:48:14.019Z,83.63
2022-08-22T05:53:26.086Z,82.30
2022-08-22T05:58:46.375Z,82.01
2022-08-22T06:03:58.785Z,81.01
2022-08-22T06:09:04.593Z,79.31
2022-08-22T06:14:18.319Z,78.31
2022-08-22T06:19:27.025Z,76.28
2022-08-22T06:24:31.063Z,76.92
2022-08-22T06:29:37.817Z,76.72
2022-08-22T06:34:43.206Z,77.08
2022-08-22T06:39:49.022Z,75.99
2022-08-22T06:44:56.979Z,75.66
2022-08-22T06:50:05.468Z,76.21
2022-08-22T06:55:09.908Z,74.54
2022-08-22T07:00:16.044Z,74.70
2022-08-22T07:05:20.977Z,73.30
2022-08-22T07:10:24.982Z,71.73
2022-08-22T07:15:34.653Z,70.95
2022-08-22T07:20:39.382Z,71.21
2022-08-22T07:25:52.533Z,71.45
2022-08-22T07:30:59.282Z,69.96
2022-08-22T07:36:16.304Z,68.90
2022-08-22T07:41:22.776Z,66.26
2022-08-22T07:46:30.589Z,64.52
2022-08-22T07:51:35.881Z,65.25
2022-08-22T07:56:43.270Z,65.52
2022-08-22T08:01:50.192Z,66.03
2022-08-22T08:06:55.317Z,66.43
2022-08-22T08:11:59.103Z,65.51
2022-08-22T08:17:04.738Z,62.24
2022-08-22T08:22:07.773Z,62.07
2022-08-22T08:27:15.383Z,56.96
2022-08-22T08:32:19.140Z,55.13
2022-08-22T08:37:27.626Z,53.69
2022-08-22T08:42:48.994Z,55.19
2022-08-22T08:48:09.590Z,51.49
2022-08-22T08:53:36.440Z,49.17
2022-08-22T08:58:44.384Z,51.41
2022-08-22T09:04:24.999Z,47.61
2022-08-22T09:09:42.867Z,47.60
2022-08-22T09:15:14.294Z,47.95
2022-08-22T09:20:28.664Z,44.76
2022-08-22T09:25:39.201Z,44.37
2022-08-22T09:30:57.874Z,43.68
2022-08-22T09:36:06.061Z,44.11
2022-08-22T09:41:26.965Z,43.75
2022-08-22T09:46:36.989Z,45.24
2022-08-22T09:51:50.288Z,42.33
2022-08-22T09:57:08.297Z,45.50
2022-08-22T10:02:23.638Z,43.41
2022-08-22T10:07:59.173Z,42.56
2022-08-22T10:13:10.692Z,41.73
2022-08-22T10:18:23.966Z,40.04
2022-08-22T10:23:37.632Z,41.27
2022-08-22T10:28:48.647Z,37.47
2022-08-22T10:34:00.899Z,38.17
2022-08-22T10:39:11.611Z,37.86
2022-08-22T10:44:19.119Z,36.39
2022-08-22T10:49:28.370Z,37.10
2022-08-22T10:54:41.394Z,34.98
2022-08-22T10:59:49.140Z,35.63
2022-08-22T11:05:27.638Z,38.90
2022-08-22T11:10:59.842Z,37.53
2022-08-22T11:16:13.258Z,39.10
2022-08-22T11:21:26.288Z,40.73
2022-08-22T11:26:46.659Z,42.15
2022-08-22T11:32:04.307Z,38.70
2022-08-22T11:37:42.197Z,40.06
2022-08-22T11:42:53.678Z,38.78
2022-08-22T11:48:01.585Z,40.04
2022-08-22T11:53:19.791Z,38.71
2022-08-22T11:58:40.885Z,41.43
2022-08-22T12:03:58.453Z,37.69
2022-08-22T12:09:37.997Z,36.12
2022-08-22T12:14:46.825Z,35.93
2022-08-22T12:20:16.612Z,36.75
2022-08-22T12:25:36.278Z,35.72
2022-08-22T12:30:59.913Z,36.62
2022-08-22T12:36:24.489Z,37.49
2022-08-22T12:41:48.230Z,36.76
2022-08-22T12:47:05.903Z,36.01
2022-08-22T12:52:24.256Z,36.92
2022-08-22T12:57:39.093Z,37.63
2022-08-22T13:02:43.432Z,38.41
2022-08-22T13:07:52.530Z,38.15
2022-08-22T13:12:59.233Z,40.08
2022-08-22T13:18:28.774Z,37.68
2022-08-22T13:23:34.287Z,37.45
2022-08-22T13:28:44.807Z,38.58
2022-08-22T13:33:52.640Z,37.31
2022-08-22T13:39:00.907Z,37.18
2022-08-22T13:44:20.590Z,38.87
2022-08-22T13:49:33.451Z,39.52
2022-08-22T13:54:50.423Z,39.31
2022-08-22T14:00:06.186Z,38.64
2022-08-22T14:05:13.429Z,37.85
2022-08-22T14:10:23.609Z,38.87
2022-08-22T14:15:32.186Z,39.30
2022-08-22T14:20:47.516Z,39.69
2022-08-22T14:25:50.128Z,38.07
2022-08-22T14:30:59.365Z,39.88
2022-08-22T14:36:13.351Z,40.48
2022-08-22T14:41:26.383Z,39.95
2022-08-22T14:46:35.530Z,39.19
2022-08-22T14:51:48.800Z,39.76
2022-08-22T14:56:54.821Z,40.30
2022-08-22T15:02:04.863Z,42.07
2022-08-22T15:07:10.549Z,41.23
2022-08-22T15:12:24.667Z,42.04
2022-08-22T15:17:38.208Z,42.55
2022-08-22T15:22:45.463Z,41.51
2022-08-22T15:28:05.182Z,41.99
2022-08-22T15:33:11.952Z,41.92
2022-08-22T15:38:31.480Z,41.73
2022-08-22T15:43:36.209Z,43.24
2022-08-22T15:48:39.430Z,42.36
2022-08-22T15:54:16.298Z,45.87
2022-08-22T15:59:47.703Z,45.02
2022-08-22T16:05:18.837Z,45.41
2022-08-22T16:10:35.122Z,45.89
2022-08-22T16:15:59.109Z,46.23
2022-08-22T16:21:02.495Z,46.37
2022-08-22T16:26:14.357Z,46.47
2022-08-22T16:31:23.502Z,47.24
2022-08-22T16:36:42.627Z,47.76
2022-08-22T16:41:47.182Z,49.73
2022-08-22T16:46:52.848Z,49.95
2022-08-22T16:52:34.378Z,48.47
2022-08-22T16:58:05.279Z,48.50
2022-08-22T17:03:20.052Z,50.08
2022-08-22T17:08:33.881Z,53.50
2022-08-22T17:13:56.076Z,50.97
2022-08-22T17:19:17.706Z,51.61
2022-08-22T17:24:31.718Z,51.29
2022-08-22T17:29:50.019Z,52.04
2022-08-22T17:34:58.977Z,50.83
2022-08-22T17:40:26.446Z,50.78
2022-08-22T17:45:44.810Z,50.58
2022-08-22T17:50:53.215Z,49.91
2022-08-22T17:56:03.363Z,50.36
2022-08-22T18:01:11.723Z,50.26
2022-08-22T18:06:20.402Z,50.51
2022-08-22T18:11:29.369Z,51.46
2022-08-22T18:16:35.379Z,51.64
2022-08-22T18:21:41.852Z,53.36
2022-08-22T18:26:50.968Z,54.07
2022-08-22T18:32:06.380Z,54.28
2022-08-22T18:37:18.979Z,54.46
2022-08-22T18:42:28.681Z,54.30
2022-08-22T18:47:34.307Z,54.31
2022-08-22T18:52:39.602Z,54.95
2022-08-22T18:57:58.994Z,55.46
2022-08-22T19:03:30.230Z,54.97
2022-08-22T19:08:49.315Z,55.91
2022-08-22T19:14:12.769Z,56.23
2022-08-22T19:19:21.090Z,56.52
2022-08-22T19:24:56.072Z,56.87
2022-08-22T19:30:01.379Z,57.01
2022-08-22T19:35:18.553Z,58.33
2022-08-22T19:40:53.570Z,58.07
2022-08-22T19:45:56.609Z,57.29
2022-08-22T19:51:12.672Z,58.45
2022-08-22T19:56:28.241Z,59.27
2022-08-22T20:01:45.934Z,59.27
2022-08-22T20:07:00.500Z,59.51
2022-08-22T20:12:15.540Z,58.78
2022-08-22T20:17:41.595Z,59.76
2022-08-22T20:22:49.803Z,60.17
2022-08-22T20:28:02.674Z,61.04
2022-08-22T20:33:09.209Z,61.44
2022-08-22T20:38:16.550Z,62.79
2022-08-22T20:43:24.474Z,63.11
2022-08-22T20:48:36.670Z,62.26
2022-08-22T20:53:40.167Z,62.63
2022-08-22T20:58:42.227Z,62.86
2022-08-22T21:03:47.509Z,63.07
2022-08-22T21:08:50.797Z,63.76
2022-08-22T21:13:53.538Z,63.45
2022-08-22T21:18:56.104Z,64.30
2022-08-22T21:24:03.292Z,64.30
2022-08-22T21:29:18.339Z,64.69
2022-08-22T21:34:23.426Z,64.59
2022-08-22T21:39:30.643Z,65.45
2022-08-22T21:44:35.949Z,67.18
2022-08-22T21:49:59.126Z,66.43
2022-08-22T21:55:26.241Z,66.75
2022-08-22T22:00:48.933Z,66.04
2022-08-22T22:05:53.114Z,66.05
2022-08-22T22:10:59.409Z,66.71
2022-08-22T22:16:01.429Z,66.25
2022-08-22T22:21:04.231Z,66.16
2022-08-22T22:26:07.296Z,65.89
2022-08-22T22:31:10.281Z,67.06
2022-08-22T22:36:16.323Z,66.21
2022-08-22T22:41:20.938Z,66.94
2022-08-22T22:46:24.200Z,66.57
2022-08-22T22:51:26.312Z,67.47
2022-08-22T22:56:29.784Z,67.97
2022-08-22T23:01:31.986Z,68.78
2022-08-22T23:06:34.863Z,69.46
2022-08-22T23:11:38.722Z,70.19
2022-08-22T23:16:41.025Z,70.57
2022-08-22T23:21:44.537Z,71.56
2022-08-22T23:26:47.992Z,71.34
2022-08-22T23:31:52.159Z,72.28
2022-08-22T23:36:57.964Z,72.89
2022-08-22T23:42:02.026Z,73.07
2022-08-22T23:47:05.557Z,73.03
2022-08-22T23:52:09.100Z,73.88
2022-08-22T23:57:12.780Z,74.55
